Flight Track Log - Related Links

Times and Time Zones

All times are in EDT time to prevent confusion due to time zone crossing. See the AFR3552 flight status page for this flight to view local times or setup timezone preferences in your user account.

Time Position Orientation Groundspeed Altitude Reporting Facility
EDT Latitude Longitude Course Direction KTS MPH feet Rate Location/Type
Tue 08:14:23 AM 48.7250 2.3580 253° West 11 13  Level FlightAware ADS-B
Tue 08:14:37 AM 48.7250 2.3570 270° West 12 14 28 Level FlightAware ADS-B
Tue 08:15:48 AM 48.7260 2.3530 291° West 11 13 29 Level FlightAware ADS-B
Tue 08:16:23 AM 48.7280 2.3530 360° North 13 15 31 Level FlightAware ADS-B
Tue 08:16:53 AM 48.7290 2.3530 360° North 5 6 33 Level FlightAware ADS-B
Tue 08:17:23 AM 48.7300 2.3540 33° Northeast 10 12 34 Level FlightAware ADS-B
Tue 08:17:48 AM 48.7310 2.3550 33° Northeast 12 14 36 Level FlightAware ADS-B
Tue 08:18:13 AM 48.7320 2.3560 33° Northeast 10 12 37 Level FlightAware ADS-B
Tue 08:18:43 AM 48.7320 2.3570 90° East 8 9 39 Level FlightAware ADS-B
Tue 08:19:13 AM 48.7330 2.3580 33° Northeast 3 3 41 Level FlightAware ADS-B
Tue 08:21:00 AM 48.7333 2.0225 270° West  Level FlightAware Approximate
Tue 08:22:00 AM 48.7334 1.8282 270° West  Level FlightAware Approximate
Tue 08:23:00 AM 48.7400 1.6344 276° West  Level FlightAware Approximate
Tue 08:23:38 AM 48.7330 2.3600 276° West 5 6  Level FlightAware ADS-B
Tue 08:24:08 AM 48.7340 2.3610 33° Northeast 5 6 81 Level FlightAware ADS-B
Tue 08:26:00 AM 48.7334 2.0008 270° West  Level FlightAware Approximate
Tue 08:26:28 AM 48.7350 2.3610 270° West 6 7  Level FlightAware ADS-B
Tue 08:27:18 AM 48.7350 2.3600 270° West 192 Level FlightAware ADS-B
Tue 08:28:03 AM 48.7340 2.3580 233° Southwest 53 61 320 Level FlightAware ADS-B
Tue 08:28:33 AM 48.7270 2.3360 244° Southwest 170 196 400 1,527 Climbing FlightAware ADS-B
Tue 08:28:58 AM 48.7170 2.3080 242° Southwest 174 200 1,400 2,400 Climbing FlightAware ADS-B
Tue 08:29:13 AM 48.7100 2.2890 241° Southwest 180 207 2,000 2,100 Climbing FlightAware ADS-B
Tue 08:29:38 AM 48.6980 2.2620 236° Southwest 184 212 2,800 1,500 Climbing FlightAware ADS-B
Tue 08:30:13 AM 48.6820 2.2250 237° Southwest 204 235 3,500 1,300 Climbing FlightAware ADS-B
Tue 08:30:38 AM 48.6680 2.1950 235° Southwest 217 250 4,100 1,200 Climbing FlightAware ADS-B
Tue 08:31:03 AM 48.6540 2.1530 243° Southwest 257 296 4,500 1,444 Climbing FlightAware ADS-B
Tue 08:31:32 AM 48.6390 2.1070 244° Southwest 275 316 5,400 2,400 Climbing FlightAware ADS-B
Tue 08:32:03 AM 48.6240 2.0570 246° West 269 310 6,900 2,818 Climbing FlightAware ADS-B
Tue 08:32:38 AM 48.6350 1.9850 283° West 281 323 8,500 2,250 Climbing FlightAware ADS-B
Tue 08:33:07 AM 48.6460 1.9380 290° West 289 333 9,300 1,938 Climbing FlightAware ADS-B
Tue 08:33:43 AM 48.6640 1.8620 290° West 302 348 10,600 1,481 Climbing FlightAware ADS-B
Tue 08:34:28 AM 48.6860 1.7660 289° West 354 407 11,300 988 Climbing FlightAware ADS-B
Tue 08:35:08 AM 48.7080 1.6700 289° West 387 445 12,000 494 Climbing FlightAware ADS-B
Tue 08:35:53 AM 48.7360 1.5480 289° West 387 445 12,000  Level FlightAware ADS-B
Tue 08:36:33 AM 48.7510 1.4530 284° West 381 438 12,000 836 Level FlightAware ADS-B
Tue 08:37:55 AM 48.7640 1.2230 275° West 391 450 13,700 1,729 Climbing FlightAware ADS-B
Tue 08:38:31 AM 48.7607 1.1170 275° West 408 470 15,400 2,400 Climbing FlightAware UK
Tue 08:38:35 AM 48.7600 1.1290 275° West 394 453 15,300 2,129 Descending FlightAware ADS-B
Tue 08:39:33 AM 48.7340 0.9750 256° West 404 465 17,600 2,474 Climbing FlightAware ADS-B
Tue 08:40:12 AM 48.7090 0.8460 254° West 415 478 19,300 2,354 Climbing FlightAware ADS-B
Tue 08:40:52 AM 48.6900 0.7430 254° West 425 489 20,700 2,133 Climbing FlightAware ADS-B
Tue 08:41:42 AM 48.6589 0.5820 254° West 450 518 22,500 2,080 Climbing FlightAware UK
Tue 08:42:07 AM 48.6380 0.5190 254° West 438 504 23,300 1,800 Climbing FlightAware ADS-B
Tue 08:42:42 AM 48.5993 0.4210 254° West 458 527 24,300 1,833 Climbing FlightAware UK
Tue 08:42:43 AM 48.6000 0.4200 254° West 445 512 24,400 1,610 Climbing FlightAware ADS-B
Tue 08:43:23 AM 48.5640 0.3190 242° Southwest 453 521 25,400 2,000 Climbing FlightAware ADS-B
Tue 08:44:07 AM 48.5180 0.1840 243° Southwest 449 517 27,200 3,154 Climbing FlightAware ADS-B
Tue 08:44:41 AM 48.4850 0.0970 240° Southwest 417 480 29,500 2,480 Climbing FlightAware ADS-B
Tue 08:45:22 AM 48.4450 -0.0020 239° Southwest 426 490 30,300 978 Climbing FlightAware ADS-B
Tue 08:46:13 AM 48.3880 -0.1370 238° Southwest 442 509 31,000 424 Climbing FlightAware ADS-B
Tue 08:47:01 AM 48.3350 -0.2670 239° Southwest 469 540 31,000  Level FlightAware ADS-B
Tue 08:47:41 AM 48.2900 -0.3740 238° Southwest 470 541 31,000  Level FlightAware ADS-B
Tue 08:48:25 AM 48.2390 -0.4960 238° Southwest 470 541 31,000  Level FlightAware ADS-B
Tue 08:49:07 AM 48.1900 -0.6140 238° Southwest 471 542 31,000  Level FlightAware ADS-B
Tue 08:49:39 AM 48.1520 -0.7030 237° Southwest 471 542 31,000  Level FlightAware ADS-B
Tue 08:50:23 AM 48.1010 -0.8240 238° Southwest 469 540 31,000  Level FlightAware ADS-B
Tue 08:51:07 AM 48.0510 -0.9420 238° Southwest 467 537 31,000 583 Level FlightAware ADS-B
Tue 08:51:35 AM 48.0180 -1.0190 237° Southwest 465 535 31,700 789 Climbing FlightAware ADS-B
Tue 08:52:23 AM 47.9640 -1.1440 237° Southwest 465 535 32,000 243 Climbing FlightAware ADS-B
Tue 08:52:49 AM 47.9330 -1.2180 238° Southwest 464 534 32,000  Level FlightAware ADS-B
Tue 08:53:27 AM 47.8880 -1.3200 237° Southwest 469 540 32,000  Level FlightAware ADS-B
Tue 08:54:07 AM 47.8420 -1.4270 237° Southwest 469 540 32,000  Level FlightAware ADS-B
Tue 08:54:47 AM 47.7950 -1.5360 237° Southwest 469 540 32,000  Level FlightAware ADS-B
Tue 08:55:31 AM 47.7420 -1.6570 237° Southwest 469 540 32,000  Level FlightAware ADS-B
Tue 08:56:11 AM 47.6950 -1.7640 237° Southwest 470 541 32,000  Level FlightAware ADS-B
Tue 08:56:55 AM 47.6420 -1.8830 237° Southwest 468 539 32,000  Level FlightAware ADS-B
Tue 08:57:35 AM 47.5950 -1.9900 237° Southwest 465 535 32,000  Level FlightAware ADS-B
Tue 08:58:19 AM 47.5450 -2.1040 237° Southwest 462 532 32,000  Level FlightAware ADS-B
Tue 08:59:01 AM 47.4950 -2.2150 236° Southwest 462 532 32,000  Level FlightAware ADS-B
Tue 08:59:45 AM 47.4430 -2.3310 236° Southwest 460 529 32,000  Level FlightAware ADS-B
Tue 09:00:17 AM 47.4050 -2.4150 236° Southwest 460 529 32,000  Level FlightAware ADS-B
Tue 09:00:52 AM 47.3650 -2.5040 236° Southwest 459 528 32,000  Level FlightAware ADS-B
Tue 09:01:35 AM 47.3140 -2.6180 237° Southwest 456 525 32,000  Level FlightAware ADS-B
Tue 09:02:17 AM 47.2650 -2.7260 236° Southwest 456 525 32,000  Level FlightAware ADS-B
Tue 09:02:59 AM 47.2220 -2.8350 240° Southwest 462 532 32,000  Level FlightAware ADS-B
Tue 09:03:41 AM 47.1940 -2.9660 253° West 464 534 32,000  Level FlightAware ADS-B
Tue 09:04:23 AM 47.1690 -3.0920 254° West 466 536 32,000  Level FlightAware ADS-B
Tue 09:05:01 AM 47.1490 -3.2090 256° West 467 537 32,000  Level FlightAware ADS-B
Tue 09:05:49 AM 47.1220 -3.3560 255° West 466 536 32,000  Level FlightAware ADS-B
Tue 09:06:30 AM 47.0990 -3.4790 255° West 466 536 32,000  Level FlightAware ADS-B
Tue 09:07:09 AM 47.0770 -3.5990 255° West 465 535 32,000  Level FlightAware ADS-B
Tue 09:07:53 AM 47.0520 -3.7320 255° West 464 534 32,000  Level FlightAware ADS-B
Tue 09:08:35 AM 47.0290 -3.8590 255° West 461 531 32,000  Level FlightAware ADS-B
Tue 09:09:11 AM 47.0080 -3.9690 254° West 463 533 32,000  Level FlightAware ADS-B
Tue 09:09:51 AM 46.9860 -4.0870 255° West 465 535 32,000  Level FlightAware ADS-B
Tue 09:10:35 AM 46.9610 -4.2210 255° West 464 534 32,000  Level FlightAware ADS-B
Tue 09:11:15 AM 46.9380 -4.3420 254° West 464 534 32,000  Level FlightAware ADS-B
Tue 09:11:59 AM 46.9130 -4.4750 255° West 466 536 32,000  Level FlightAware ADS-B
Tue 09:12:37 AM 46.8910 -4.5910 255° West 468 539 32,000  Level FlightAware ADS-B
Tue 09:13:20 AM 46.8660 -4.7190 254° West 467 537 32,000  Level FlightAware ADS-B
Tue 09:14:05 AM 46.8390 -4.8590 254° West 466 536 32,000  Level FlightAware ADS-B
Tue 09:14:45 AM 46.8150 -4.9780 254° West 466 536 32,000  Level FlightAware ADS-B
Tue 09:15:25 AM 46.7920 -5.0940 254° West 469 540 32,000  Level FlightAware ADS-B
Tue 09:16:11 AM 46.7640 -5.2390 254° West 465 535 32,000  Level FlightAware ADS-B
Tue 09:16:51 AM 46.7400 -5.3580 254° West 463 533 32,000  Level FlightAware ADS-B
Tue 09:17:35 AM 46.7130 -5.4900 253° West 460 529 32,000  Level FlightAware ADS-B
Tue 09:18:11 AM 46.6920 -5.5970 254° West 460 529 32,000  Level FlightAware ADS-B
Tue 09:18:59 AM 46.6630 -5.7380 253° West 463 533 32,000  Level FlightAware ADS-B
Tue 09:19:43 AM 46.6350 -5.8720 253° West 463 533 32,000  Level FlightAware ADS-B
Tue 09:20:23 AM 46.6110 -5.9910 254° West 461 531 32,000  Level FlightAware ADS-B
Tue 09:21:05 AM 46.5860 -6.1110 253° West 461 531 32,000  Level FlightAware ADS-B
Tue 09:21:45 AM 46.5600 -6.2320 253° West 462 532 32,000  Level FlightAware ADS-B
Tue 09:22:36 AM 46.5310 -6.3710 253° West 459 528 32,000  Level FlightAware ADS-B
Tue 09:23:23 AM 46.5000 -6.5180 253° West 449 517 32,000  Level FlightAware ADS-B
Tue 09:24:02 AM 46.4770 -6.6280 253° West 445 512 32,000  Level FlightAware ADS-B
Tue 09:24:43 AM 46.4550 -6.7280 252° West 445 512 32,000  Level FlightAware ADS-B
Tue 09:25:19 AM 46.4350 -6.8140 251° West 445 512 32,000  Level FlightAware ADS-B
Tue 09:26:07 AM 46.4090 -6.9300 252° West 445 512 32,000  Level FlightAware ADS-B
Tue 09:26:43 AM 46.3900 -7.0170 252° West 445 512 32,000  Level FlightAware ADS-B
Tue 09:27:19 AM 46.3700 -7.1040 252° West 445 512 32,000  Level FlightAware ADS-B
Tue 09:28:07 AM 46.3440 -7.2200 252° West 445 512 32,000  Level FlightAware ADS-B
Tue 09:28:44 AM 46.3240 -7.3090 252° West 445 512 32,000  Level FlightAware ADS-B
Tue 09:29:20 AM 46.3050 -7.3960 252° West 445 512 32,000  Level FlightAware ADS-B
Tue 09:30:10 AM 46.2780 -7.5160 252° West 445 512 32,000  Level FlightAware ADS-B
Tue 09:30:46 AM 46.2580 -7.6030 252° West 445 512 32,000  Level FlightAware ADS-B
Tue 09:31:34 AM 46.2320 -7.7180 252° West 445 512 32,000  Level FlightAware ADS-B
Tue 09:32:11 AM 46.2120 -7.8070 252° West 445 512 32,000  Level FlightAware ADS-B
Tue 09:32:47 AM 46.1930 -7.8940 253° West 445 512 32,000  Level FlightAware ADS-B
Tue 09:33:35 AM 46.1670 -8.0090 252° West 445 512 32,000  Level FlightAware ADS-B
Tue 09:36:00 AM 46.0735 -8.4293 252° West  Level Estimated
Tue 09:37:00 AM 46.0344 -8.6028 252° West  Level Estimated
Tue 09:38:00 AM 45.9950 -8.7761 252° West  Level Estimated
Tue 09:39:00 AM 45.9553 -8.9491 252° West  Level Estimated
Tue 09:40:00 AM 45.9154 -9.1219 252° West  Level Estimated
Tue 09:41:00 AM 45.8752 -9.2944 252° West  Level Estimated
Tue 09:42:00 AM 45.8348 -9.4667 251° West  Level Estimated
Tue 09:42:59 AM 45.6040 -9.7060 251° West 450 518 32,000  Level FlightAware ADS-B
Tue 09:43:00 AM 45.7941 -9.6387 251° West  Level Estimated
Tue 09:43:39 AM 45.5660 -9.7910 237° Southwest 450 518 32,000  Level FlightAware ADS-B
Tue 09:44:29 AM 45.5000 -9.9420 238° Southwest 451 519 32,000  Level FlightAware ADS-B
Tue 09:45:09 AM 45.4550 -10.0440 238° Southwest 451 519 32,000  Level FlightAware ADS-B
Tue 09:45:49 AM 45.4100 -10.1420 237° Southwest 451 519 32,000  Level FlightAware ADS-B
Tue 09:46:34 AM 45.3610 -10.2530 238° Southwest 451 519 32,000  Level FlightAware ADS-B
Tue 09:47:14 AM 45.3150 -10.3540 237° Southwest 452 520 32,000  Level FlightAware ADS-B
Tue 09:47:49 AM 45.2750 -10.4430 237° Southwest 453 521 32,000  Level FlightAware ADS-B
Tue 09:48:29 AM 45.2300 -10.5430 237° Southwest 453 521 32,000  Level FlightAware ADS-B
Tue 09:49:09 AM 45.1860 -10.6390 237° Southwest 452 520 32,000  Level FlightAware ADS-B
Tue 09:49:50 AM 45.1450 -10.7270 237° Southwest 453 521 32,000  Level FlightAware ADS-B
Tue 09:50:30 AM 45.0920 -10.8430 237° Southwest 452 520 32,000  Level FlightAware ADS-B
Tue 09:51:10 AM 45.0470 -10.9410 237° Southwest 451 519 32,000  Level FlightAware ADS-B
Tue 09:51:50 AM 44.9980 -11.0330 233° Southwest 460 529 32,000  Level FlightAware ADS-B
Tue 09:52:30 AM 44.9360 -11.1220 225° Southwest 465 535 32,000  Level FlightAware ADS-B
Tue 09:53:10 AM 44.8750 -11.2060 224° Southwest 466 536 32,000  Level FlightAware ADS-B
Tue 09:53:55 AM 44.8050 -11.3000 224° Southwest 467 537 32,000 141 Level FlightAware ADS-B
Tue 09:54:35 AM 44.7420 -11.3860 224° Southwest 470 541 32,200 750 Climbing FlightAware ADS-B
Tue 09:55:15 AM 44.6800 -11.4710 224° Southwest 466 536 33,000 565 Climbing FlightAware ADS-B
Tue 09:56:00 AM 44.6110 -11.5660 224° Southwest 465 535 33,000  Level FlightAware ADS-B
Tue 09:56:35 AM 44.5590 -11.6360 224° Southwest 464 534 33,000  Level FlightAware ADS-B
Tue 09:57:33 AM 44.4740 -11.7500 224° Southwest 465 535 33,000  Level FlightAware ADS-B
Tue 09:58:09 AM 44.4270 -11.8140 224° Southwest 465 535 33,000  Level FlightAware ADS-B
Tue 09:58:58 AM 44.3630 -11.9010 224° Southwest 465 535 33,000  Level FlightAware ADS-B
Tue 09:59:32 AM 44.3180 -11.9620 224° Southwest 465 535 33,000  Level FlightAware ADS-B
Tue 09:59:45 AM 44.5110 -11.7000 44° Northeast 33,000  Level FlightAware ADS-B
Tue 10:00:06 AM 44.2360 -12.0700 224° Southwest 465 535 33,000  Level FlightAware ADS-B
Tue 10:00:46 AM 44.1680 -12.1600 224° Southwest 466 536 33,000  Level FlightAware ADS-B
Tue 10:01:30 AM 44.1080 -12.2370 223° Southwest 466 536 33,000  Level FlightAware ADS-B
Tue 10:02:06 AM 44.0600 -12.3000 223° Southwest 466 536 33,000  Level FlightAware ADS-B
Tue 10:02:54 AM 43.9960 -12.3830 223° Southwest 466 536 33,000  Level FlightAware ADS-B
Tue 10:03:29 AM 43.9490 -12.4440 223° Southwest 466 536 33,000  Level FlightAware ADS-B
Tue 10:04:17 AM 43.8850 -12.5270 223° Southwest 466 536 33,000  Level FlightAware ADS-B
Tue 10:05:30 AM 43.7870 -12.6540 223° Southwest 466 536 33,000  Level FlightAware ADS-B
Tue 10:06:06 AM 43.7380 -12.7160 222° Southwest 466 536 33,000  Level FlightAware ADS-B
Tue 10:06:54 AM 43.6740 -12.7990 223° Southwest 466 536 33,000  Level FlightAware ADS-B
Tue 10:07:31 AM 43.6250 -12.8630 223° Southwest 466 536 33,000  Level FlightAware ADS-B
Tue 10:08:20 AM 43.5590 -12.9480 223° Southwest 466 536 33,000  Level FlightAware ADS-B
Tue 10:08:56 AM 43.5110 -13.0100 223° Southwest 466 536 33,000  Level FlightAware ADS-B
Tue 10:09:44 AM 43.4460 -13.0920 222° Southwest 466 536 33,000  Level FlightAware ADS-B
Tue 10:10:20 AM 43.3980 -13.1540 223° Southwest 466 536 33,000 12 Level FlightAware ADS-B
Tue 10:13:00 AM 43.3055 -13.5976 254° West  Level FlightAware Approximate
Tue 10:14:00 AM 43.2704 -13.7637 254° West  Level FlightAware Approximate
Tue 10:15:00 AM 43.2351 -13.9295 254° West  Level FlightAware Approximate
Tue 10:16:00 AM 43.1995 -14.0951 254° West  Level FlightAware Approximate
Tue 10:17:00 AM 43.1636 -14.2606 254° West  Level FlightAware Approximate
Tue 10:18:00 AM 43.1275 -14.4258 253° West  Level FlightAware Approximate
Tue 10:19:00 AM 43.0912 -14.5908 253° West  Level FlightAware Approximate
Tue 10:20:00 AM 43.0547 -14.7557 253° West  Level FlightAware Approximate
Tue 10:21:00 AM 43.0179 -14.9204 253° West  Level FlightAware Approximate
Tue 10:22:00 AM 42.9703 -15.0811 243° Southwest  Level FlightAware Approximate
Tue 10:23:00 AM 42.9137 -15.2346 243° Southwest  Level FlightAware Approximate
Tue 10:24:00 AM 42.8569 -15.3879 243° Southwest  Level FlightAware Approximate
Tue 10:25:00 AM 42.8000 -15.5409 243° Southwest  Level FlightAware Approximate
Tue 10:26:00 AM 42.7428 -15.6937 243° Southwest  Level FlightAware Approximate
Tue 10:27:00 AM 42.6854 -15.8461 243° Southwest  Level FlightAware Approximate
Tue 10:28:00 AM 42.6278 -15.9983 243° Southwest  Level FlightAware Approximate
Tue 10:29:00 AM 42.5700 -16.1501 243° Southwest  Level FlightAware Approximate
Tue 10:30:00 AM 42.5121 -16.3017 243° Southwest  Level FlightAware Approximate
Tue 10:31:00 AM 42.4539 -16.4530 243° Southwest  Level FlightAware Approximate
Tue 10:32:00 AM 42.3955 -16.6041 242° Southwest  Level FlightAware Approximate
Tue 10:33:00 AM 42.3369 -16.7548 242° Southwest  Level FlightAware Approximate
Tue 10:34:00 AM 42.2781 -16.9053 242° Southwest  Level FlightAware Approximate
Tue 10:35:00 AM 42.2192 -17.0555 242° Southwest  Level FlightAware Approximate
Tue 10:36:00 AM 42.1600 -17.2054 242° Southwest  Level FlightAware Approximate
Tue 10:37:00 AM 42.1007 -17.3550 242° Southwest  Level FlightAware Approximate
Tue 10:38:00 AM 42.0411 -17.5044 242° Southwest  Level FlightAware Approximate
Tue 10:39:00 AM 41.9813 -17.6534 242° Southwest  Level FlightAware Approximate
Tue 10:40:00 AM 41.9214 -17.8022 242° Southwest  Level FlightAware Approximate
Tue 10:41:00 AM 41.8613 -17.9507 242° Southwest  Level FlightAware Approximate
Tue 10:42:00 AM 41.8010 -18.0990 241° Southwest  Level FlightAware Approximate
Tue 10:43:00 AM 41.7405 -18.2469 241° Southwest  Level FlightAware Approximate
Tue 10:44:00 AM 41.6797 -18.3946 241° Southwest  Level FlightAware Approximate
Tue 10:45:00 AM 41.6189 -18.5420 241° Southwest  Level FlightAware Approximate
Tue 10:46:00 AM 41.5578 -18.6891 241° Southwest  Level FlightAware Approximate
Tue 10:47:00 AM 41.4965 -18.8359 241° Southwest  Level FlightAware Approximate
Tue 10:48:00 AM 41.4351 -18.9825 241° Southwest  Level FlightAware Approximate
Tue 10:49:00 AM 41.3734 -19.1288 241° Southwest  Level FlightAware Approximate
Tue 10:50:00 AM 41.3116 -19.2748 241° Southwest  Level FlightAware Approximate
Tue 10:51:00 AM 41.2496 -19.4205 241° Southwest  Level FlightAware Approximate
Tue 10:52:00 AM 41.1874 -19.5659 240° Southwest  Level FlightAware Approximate
Tue 10:53:00 AM 41.1250 -19.7111 240° Southwest  Level FlightAware Approximate
Tue 10:54:00 AM 41.0625 -19.8560 240° Southwest  Level FlightAware Approximate
Tue 10:55:00 AM 40.9998 -20.0006 246° West  Level FlightAware Approximate
Tue 10:56:00 AM 40.9485 -20.1528 246° West  Level FlightAware Approximate
Tue 10:57:00 AM 40.8969 -20.3048 246° West  Level FlightAware Approximate
Tue 10:58:00 AM 40.8452 -20.4565 246° West  Level FlightAware Approximate
Tue 10:59:00 AM 40.7933 -20.6080 246° West  Level FlightAware Approximate
Tue 11:00:00 AM 40.7412 -20.7592 246° West  Level FlightAware Approximate
Tue 11:00:52 AM 40.6100 -21.1900 245° Southwest 467 537 33,600  Level FlightAware ADS-B
Tue 11:01:00 AM 40.6889 -20.9102 245° Southwest  Level FlightAware Approximate
Tue 11:01:38 AM 40.5760 -21.2850 245° Southwest 467 537 33,600  Level FlightAware ADS-B
Tue 11:02:15 AM 40.5470 -21.3670 245° Southwest 467 537 33,600  Level FlightAware ADS-B
Tue 11:03:29 AM 40.4900 -21.5290 245° Southwest 467 537 33,600  Level FlightAware ADS-B
Tue 11:04:05 AM 40.4620 -21.6070 245° Southwest 467 537 33,600  Level FlightAware ADS-B
Tue 11:04:53 AM 40.4250 -21.7120 245° Southwest 467 537 33,600  Level FlightAware ADS-B
Tue 11:05:30 AM 40.3960 -21.7930 245° Southwest 467 537 33,600  Level FlightAware ADS-B
Tue 11:06:19 AM 40.3580 -21.9000 245° Southwest 467 537 33,600 24 Level FlightAware ADS-B
Tue 11:07:05 AM 40.2750 -22.1290 245° Southwest 33,700 30 Climbing FlightAware ADS-B
Tue 11:09:00 AM 40.1707 -22.4138 244° Southwest  Level FlightAware Approximate
Tue 11:09:42 AM 40.1210 -22.5520 244° Southwest 476 548 33,700  Level FlightAware ADS-B
Tue 11:10:58 AM 40.0710 -22.6870 244° Southwest 478 550 33,700  Level FlightAware ADS-B
Tue 11:11:32 AM 40.0220 -22.8200 244° Southwest 479 551 33,700  Level FlightAware ADS-B
Tue 11:12:28 AM 39.9650 -22.9750 244° Southwest 479 551 33,700  Level FlightAware ADS-B
Tue 11:13:45 AM 39.8940 -23.1630 244° Southwest 481 554 33,700 38 Level FlightAware ADS-B
Tue 11:15:05 AM 39.8100 -23.3870 244° Southwest 481 554 33,800 49 Climbing FlightAware ADS-B
Tue 11:15:48 AM 39.7720 -23.4870 244° Southwest 481 554 33,800  Level FlightAware ADS-B
Tue 11:16:40 AM 39.7120 -23.6450 244° Southwest 483 556 33,800  Level FlightAware ADS-B
Tue 11:17:43 AM 39.6500 -23.8060 243° Southwest 483 556 33,800  Level FlightAware ADS-B
Tue 11:18:17 AM 39.6270 -23.8650 243° Southwest 483 556 33,800  Level FlightAware ADS-B
Tue 11:19:01 AM 39.5930 -23.9550 244° Southwest 484 557 33,800  Level FlightAware ADS-B
Tue 11:20:01 AM 39.5180 -24.1470 243° Southwest 485 558 33,800  Level FlightAware ADS-B
Tue 11:20:47 AM 39.4700 -24.2720 244° Southwest 484 557 33,800  Level FlightAware ADS-B
Tue 11:21:26 AM 39.4240 -24.3900 243° Southwest 485 558 33,800  Level FlightAware ADS-B
Tue 11:22:22 AM 39.3680 -24.5330 243° Southwest 486 559 33,800  Level FlightAware ADS-B
Tue 11:23:01 AM 39.3320 -24.6250 243° Southwest 486 559 33,800  Level FlightAware ADS-B
Tue 11:23:41 AM 39.2880 -24.7340 242° Southwest 487 560 33,800  Level FlightAware ADS-B
Tue 11:24:20 AM 39.2470 -24.8380 243° Southwest 488 562 33,800 72 Level FlightAware ADS-B
Tue 11:25:04 AM 39.2110 -24.9300 243° Southwest 488 562 33,900 67 Climbing FlightAware ADS-B
Tue 11:25:50 AM 39.1620 -25.0530 243° Southwest 488 562 33,900  Level FlightAware ADS-B
Tue 11:26:34 AM 39.1160 -25.1680 243° Southwest 489 563 33,900  Level FlightAware ADS-B
Tue 11:27:11 AM 39.0890 -25.2330 242° Southwest 489 563 33,900  Level FlightAware ADS-B
Tue 11:27:56 AM 39.0430 -25.3500 243° Southwest 491 565 33,900  Level FlightAware ADS-B
Tue 11:28:52 AM 38.9620 -25.5490 242° Southwest 492 566 33,900  Level FlightAware ADS-B
Tue 11:29:37 AM 38.9130 -25.6690 242° Southwest 492 566 33,900  Level FlightAware ADS-B
Tue 11:30:17 AM 38.8720 -25.7690 242° Southwest 492 566 33,900  Level FlightAware ADS-B
Tue 11:30:57 AM 38.8290 -25.8750 243° Southwest 492 566 33,900  Level FlightAware ADS-B
Tue 11:31:37 AM 38.7870 -25.9750 242° Southwest 492 566 33,900  Level FlightAware ADS-B
Tue 11:32:12 AM 38.7500 -26.0660 242° Southwest 492 566 33,900  Level FlightAware ADS-B
Tue 11:32:52 AM 38.7080 -26.1680 242° Southwest 489 563 33,900  Level FlightAware ADS-B
Tue 11:33:27 AM 38.6690 -26.2610 242° Southwest 490 564 33,900  Level FlightAware ADS-B
Tue 11:34:12 AM 38.6210 -26.3760 242° Southwest 491 565 33,900  Level FlightAware ADS-B
Tue 11:34:52 AM 38.5780 -26.4790 242° Southwest 491 565 33,900  Level FlightAware ADS-B
Tue 11:35:37 AM 38.5290 -26.5950 242° Southwest 491 565 33,900 67 Level FlightAware ADS-B
Tue 11:36:22 AM 38.4810 -26.7110 242° Southwest 491 565 34,000 71 Climbing FlightAware ADS-B
Tue 11:37:02 AM 38.4370 -26.8140 241° Southwest 491 565 34,000  Level FlightAware ADS-B
Tue 11:37:42 AM 38.3950 -26.9150 242° Southwest 491 565 34,000  Level FlightAware ADS-B
Tue 11:38:22 AM 38.3510 -27.0180 241° Southwest 492 566 34,000  Level FlightAware ADS-B
Tue 11:39:02 AM 38.3070 -27.1220 242° Southwest 492 566 34,000  Level FlightAware ADS-B
Tue 11:39:42 AM 38.2640 -27.2200 241° Southwest 492 566 34,000  Level FlightAware ADS-B
Tue 11:40:33 AM 38.2300 -27.2990 241° Southwest 497 572 34,000  Level FlightAware ADS-B
Tue 11:41:33 AM 38.1410 -27.5070 242° Southwest 499 574 34,000  Level FlightAware ADS-B
Tue 11:42:34 AM 38.0790 -27.6500 241° Southwest 500 575 34,000  Level FlightAware ADS-B
Tue 11:43:13 AM 38.0380 -27.7440 241° Southwest 501 577 34,000 71 Level FlightAware ADS-B
Tue 11:43:59 AM 37.9780 -27.8810 241° Southwest 502 578 34,100 68 Climbing FlightAware ADS-B
Tue 11:44:41 AM 37.9320 -27.9860 241° Southwest 504 580 34,100  Level FlightAware ADS-B
Tue 11:45:24 AM 37.8820 -28.0990 241° Southwest 505 581 34,100  Level FlightAware ADS-B
Tue 11:46:04 AM 37.8360 -28.2030 241° Southwest 505 581 34,100  Level FlightAware ADS-B
Tue 11:46:49 AM 37.7850 -28.3190 241° Southwest 503 579 34,100  Level FlightAware ADS-B
Tue 11:47:19 AM 37.7520 -28.3940 241° Southwest 503 579 34,100  Level FlightAware ADS-B
Tue 11:48:04 AM 37.7000 -28.5110 241° Southwest 504 580 34,100  Level FlightAware ADS-B
Tue 11:48:44 AM 37.6520 -28.6180 240° Southwest 506 582 34,100  Level FlightAware ADS-B
Tue 11:49:18 AM 37.6120 -28.7050 240° Southwest 507 583 34,100  Level FlightAware ADS-B
Tue 11:50:01 AM 37.5620 -28.8170 241° Southwest 507 583 34,100  Level FlightAware ADS-B
Tue 11:50:46 AM 37.5100 -28.9320 240° Southwest 508 585 34,100  Level FlightAware ADS-B
Tue 11:51:21 AM 37.4690 -29.0240 241° Southwest 509 586 34,100  Level FlightAware ADS-B
Tue 11:52:01 AM 37.4220 -29.1260 240° Southwest 509 586 34,100  Level FlightAware ADS-B
Tue 11:52:41 AM 37.3790 -29.2210 240° Southwest 513 590 34,100  Level FlightAware ADS-B
Tue 11:54:02 AM 37.2820 -29.4340 240° Southwest 513 590 34,100  Level FlightAware ADS-B
Tue 11:54:37 AM 37.2390 -29.5270 240° Southwest 514 592 34,100  Level FlightAware ADS-B
Tue 11:55:23 AM 37.1830 -29.6490 240° Southwest 514 592 34,100  Level FlightAware ADS-B
Tue 11:56:03 AM 37.1350 -29.7510 239° Southwest 514 592 34,100 71 Level FlightAware ADS-B
Tue 11:56:48 AM 37.0840 -29.8620 240° Southwest 513 590 34,200 71 Climbing FlightAware ADS-B
Tue 11:57:28 AM 37.0340 -29.9700 240° Southwest 512 589 34,200  Level FlightAware ADS-B
Tue 11:58:08 AM 36.9890 -30.0670 240° Southwest 513 590 34,200  Level FlightAware ADS-B
Tue 11:58:48 AM 36.9410 -30.1790 242° Southwest 514 592 34,200  Level FlightAware ADS-B
Tue 11:59:33 AM 36.8920 -30.2940 242° Southwest 514 592 34,200  Level FlightAware ADS-B
Tue 12:00:09 PM 36.8570 -30.3760 242° Southwest 514 592 34,200  Level FlightAware ADS-B
Tue 12:00:43 PM 36.8130 -30.4760 241° Southwest 514 592 34,200  Level FlightAware ADS-B
Tue 12:01:53 PM 36.7370 -30.6500 241° Southwest 511 588 34,200  Level FlightAware ADS-B
Tue 12:02:54 PM 36.6630 -30.8160 241° Southwest 512 589 34,200 60 Level FlightAware ADS-B
Tue 12:03:33 PM 36.6230 -30.9080 242° Southwest 511 588 34,300 76 Climbing FlightAware ADS-B
Tue 12:04:13 PM 36.5820 -31.0030 242° Southwest 511 588 34,300  Level FlightAware ADS-B
Tue 12:05:01 PM 36.5370 -31.1090 242° Southwest 511 588 34,300  Level FlightAware ADS-B
Tue 12:05:38 PM 36.5020 -31.1900 242° Southwest 511 588 34,300  Level FlightAware ADS-B
Tue 12:06:27 PM 36.4550 -31.2980 242° Southwest 511 588 34,300  Level FlightAware ADS-B
Tue 12:06:52 PM 36.4320 -31.3530 243° Southwest 511 588 34,300  Level FlightAware ADS-B
Tue 12:07:28 PM 36.3980 -31.4330 242° Southwest 511 588 34,300  Level FlightAware ADS-B
Tue 12:08:17 PM 36.3520 -31.5410 242° Southwest 511 588 34,300  Level FlightAware ADS-B
Tue 12:08:54 PM 36.3170 -31.6220 242° Southwest 511 588 34,300  Level FlightAware ADS-B
Tue 12:09:42 PM 36.2710 -31.7280 242° Southwest 511 588 34,300  Level FlightAware ADS-B
Tue 12:10:19 PM 36.2370 -31.8090 243° Southwest 511 588 34,300  Level FlightAware ADS-B
Tue 12:11:12 PM 36.1870 -31.9260 242° Southwest 511 588 34,300  Level FlightAware ADS-B
Tue 12:12:01 PM 36.1400 -32.0340 242° Southwest 511 588 34,300  Level FlightAware ADS-B
Tue 12:12:36 PM 36.1070 -32.1100 242° Southwest 511 588 34,300  Level FlightAware ADS-B
Tue 12:13:22 PM 36.0640 -32.2110 242° Southwest 511 588 34,300 13 Level FlightAware ADS-B
Tue 12:15:00 PM 35.9597 -32.4300 240° Southwest  Level FlightAware Approximate
Tue 12:16:00 PM 35.8957 -32.5638 239° Southwest  Level FlightAware Approximate
Tue 12:17:00 PM 35.8315 -32.6973 239° Southwest  Level FlightAware Approximate
Tue 12:18:00 PM 35.7671 -32.8307 239° Southwest  Level FlightAware Approximate
Tue 12:19:00 PM 35.7026 -32.9638 239° Southwest  Level FlightAware Approximate
Tue 12:20:00 PM 35.6380 -33.0967 239° Southwest  Level FlightAware Approximate
Tue 12:21:00 PM 35.5732 -33.2294 239° Southwest  Level FlightAware Approximate
Tue 12:22:00 PM 35.5083 -33.3619 239° Southwest  Level FlightAware Approximate
Tue 12:23:00 PM 35.4432 -33.4942 239° Southwest  Level FlightAware Approximate
Tue 12:24:00 PM 35.3780 -33.6263 239° Southwest  Level FlightAware Approximate
Tue 12:25:00 PM 35.3127 -33.7581 239° Southwest  Level FlightAware Approximate
Tue 12:26:00 PM 35.2472 -33.8897 239° Southwest  Level FlightAware Approximate
Tue 12:27:00 PM 35.1815 -34.0211 239° Southwest  Level FlightAware Approximate
Tue 12:28:00 PM 35.1158 -34.1524 239° Southwest  Level FlightAware Approximate
Tue 12:29:00 PM 35.0498 -34.2834 238° Southwest  Level FlightAware Approximate
Tue 12:30:00 PM 34.9838 -34.4141 238° Southwest  Level FlightAware Approximate
Tue 12:31:00 PM 34.9176 -34.5447 238° Southwest  Level FlightAware Approximate
Tue 12:32:00 PM 34.8512 -34.6751 238° Southwest  Level FlightAware Approximate
Tue 12:33:00 PM 34.7847 -34.8052 238° Southwest  Level FlightAware Approximate
Tue 12:34:00 PM 34.7181 -34.9352 238° Southwest  Level FlightAware Approximate
Tue 12:35:00 PM 34.6514 -35.0649 238° Southwest  Level FlightAware Approximate
Tue 12:36:00 PM 34.5845 -35.1944 238° Southwest  Level FlightAware Approximate
Tue 12:37:00 PM 34.5174 -35.3237 238° Southwest  Level FlightAware Approximate
Tue 12:38:00 PM 34.4503 -35.4528 238° Southwest  Level FlightAware Approximate
Tue 12:39:00 PM 34.3830 -35.5817 238° Southwest  Level FlightAware Approximate
Tue 12:40:00 PM 34.3155 -35.7104 238° Southwest  Level FlightAware Approximate
Tue 12:41:00 PM 34.2480 -35.8389 238° Southwest  Level FlightAware Approximate
Tue 12:42:00 PM 34.1802 -35.9672 237° Southwest  Level FlightAware Approximate
Tue 12:43:00 PM 34.1124 -36.0953 237° Southwest  Level FlightAware Approximate
Tue 12:44:00 PM 34.0444 -36.2231 237° Southwest  Level FlightAware Approximate
Tue 12:45:00 PM 33.9763 -36.3508 237° Southwest  Level FlightAware Approximate
Tue 12:46:00 PM 33.9087 -36.4795 238° Southwest  Level FlightAware Approximate
Tue 12:47:00 PM 33.8417 -36.6078 238° Southwest  Level FlightAware Approximate
Tue 12:48:00 PM 33.7747 -36.7360 238° Southwest  Level FlightAware Approximate
Tue 12:49:00 PM 33.7074 -36.8639 238° Southwest  Level FlightAware Approximate
Tue 12:50:00 PM 33.6401 -36.9917 238° Southwest  Level FlightAware Approximate
Tue 12:51:00 PM 33.5726 -37.1192 238° Southwest  Level FlightAware Approximate
Tue 12:52:00 PM 33.5050 -37.2466 238° Southwest  Level FlightAware Approximate
Tue 12:53:00 PM 33.4373 -37.3737 237° Southwest  Level FlightAware Approximate
Tue 12:54:00 PM 33.3694 -37.5007 237° Southwest  Level FlightAware Approximate
Tue 12:55:00 PM 33.3014 -37.6274 237° Southwest  Level FlightAware Approximate
Tue 12:56:00 PM 33.2333 -37.7540 237° Southwest  Level FlightAware Approximate
Tue 12:57:00 PM 33.1651 -37.8803 237° Southwest  Level FlightAware Approximate
Tue 12:58:00 PM 33.0967 -38.0065 237° Southwest  Level FlightAware Approximate
Tue 12:59:00 PM 33.0282 -38.1324 237° Southwest  Level FlightAware Approximate
Tue 01:00:00 PM 32.9595 -38.2582 237° Southwest  Level FlightAware Approximate
Tue 01:01:00 PM 32.8908 -38.3838 237° Southwest  Level FlightAware Approximate
Tue 01:02:00 PM 32.8219 -38.5092 237° Southwest  Level FlightAware Approximate
Tue 01:03:00 PM 32.7529 -38.6343 237° Southwest  Level FlightAware Approximate
Tue 01:04:00 PM 32.6838 -38.7593 237° Southwest  Level FlightAware Approximate
Tue 01:05:00 PM 32.6145 -38.8841 237° Southwest  Level FlightAware Approximate
Tue 01:05:46 PM 32.0000 -40.0000 238° Southwest 490 564 35,000  Level New York Oceanic (ODAPS)
Tue 01:06:00 PM 32.5452 -39.0088 237° Southwest  Level FlightAware Approximate
Tue 01:07:00 PM 32.4770 -39.1342 237° Southwest  Level FlightAware Approximate
Tue 01:08:00 PM 32.4087 -39.2594 237° Southwest  Level FlightAware Approximate
Tue 01:09:00 PM 32.3403 -39.3845 237° Southwest  Level FlightAware Approximate
Tue 01:10:00 PM 32.2717 -39.5093 237° Southwest  Level FlightAware Approximate
Tue 01:11:00 PM 32.2030 -39.6340 237° Southwest  Level FlightAware Approximate
Tue 01:12:00 PM 31.4933 -40.9465 238° Southwest 490 564 35,000  Level FlightAware Transoceanic
Tue 01:13:00 PM 31.4204 -41.0809 237° Southwest 490 564 35,000  Level FlightAware Transoceanic
Tue 01:14:00 PM 31.3473 -41.2151 237° Southwest 490 564 35,000  Level FlightAware Transoceanic
Tue 01:15:00 PM 31.2741 -41.3490 237° Southwest 490 564 35,000  Level FlightAware Transoceanic
Tue 01:16:00 PM 31.2007 -41.4828 237° Southwest 490 564 35,000  Level FlightAware Transoceanic
Tue 01:17:00 PM 31.1272 -41.6163 237° Southwest 490 564 35,000  Level FlightAware Transoceanic
Tue 01:18:00 PM 31.0536 -41.7497 237° Southwest 490 564 35,000 64 Level FlightAware Transoceanic
Tue 01:18:34 PM 31.0333 -41.7833 237° Southwest 484 557 35,100  Climbing New York Oceanic (ODAPS)
Tue 01:19:00 PM 30.9798 -41.8828 237° Southwest 490 564 35,000 -70 Descending FlightAware Transoceanic
Tue 01:20:00 PM 30.9059 -42.0157 237° Southwest 490 564 35,000  Level FlightAware Transoceanic
Tue 01:21:00 PM 30.8318 -42.1485 237° Southwest 490 564 35,000  Level FlightAware Transoceanic
Tue 01:22:00 PM 30.7577 -42.2810 237° Southwest 490 564 35,000  Level FlightAware Transoceanic
Tue 01:23:00 PM 30.6833 -42.4133 237° Southwest 490 564 35,000  Level FlightAware Transoceanic
Tue 01:24:00 PM 30.6089 -42.5454 237° Southwest 490 564 35,000 50 Level FlightAware Transoceanic
Tue 01:25:00 PM 30.5239 -42.6931 237° Southwest 484 557 35,100 50 Climbing FlightAware Transoceanic
Tue 01:26:00 PM 30.4506 -42.8222 237° Southwest 484 557 35,100  Level FlightAware Transoceanic
Tue 01:27:00 PM 30.3772 -42.9512 237° Southwest 484 557 35,100  Level FlightAware Transoceanic
Tue 01:28:00 PM 30.3037 -43.0800 236° Southwest 484 557 35,100  Level FlightAware Transoceanic
Tue 01:29:00 PM 30.2300 -43.2086 236° Southwest 484 557 35,100  Level FlightAware Transoceanic
Tue 01:30:00 PM 30.1562 -43.3370 236° Southwest 484 557 35,100  Level FlightAware Transoceanic
Tue 01:31:00 PM 30.0823 -43.4652 236° Southwest 484 557 35,100  Level FlightAware Transoceanic
Tue 01:32:00 PM 30.0082 -43.5933 236° Southwest 484 557 35,100  Level FlightAware Transoceanic
Tue 01:33:00 PM 29.9341 -43.7211 236° Southwest 484 557 35,100  Level FlightAware Transoceanic
Tue 01:34:00 PM 29.8598 -43.8487 236° Southwest 484 557 35,100  Level FlightAware Transoceanic
Tue 01:35:00 PM 29.7854 -43.9762 236° Southwest 484 557 35,100  Level FlightAware Transoceanic
Tue 01:36:00 PM 29.7108 -44.1034 236° Southwest 484 557 35,100  Level FlightAware Transoceanic
Tue 01:37:00 PM 29.6362 -44.2305 236° Southwest 484 557 35,100  Level FlightAware Transoceanic
Tue 01:38:00 PM 29.5614 -44.3574 236° Southwest 484 557 35,100 56 Level FlightAware Transoceanic
Tue 01:38:48 PM 29.5167 -44.4333 236° Southwest 482 555 35,200  Climbing New York Oceanic (ODAPS)
Tue 01:39:00 PM 29.4865 -44.4841 236° Southwest 484 557 35,100 -83 Descending FlightAware Transoceanic
Tue 01:40:00 PM 29.4115 -44.6106 236° Southwest 484 557 35,100  Level FlightAware Transoceanic
Tue 01:41:00 PM 29.3363 -44.7369 236° Southwest 484 557 35,100  Level FlightAware Transoceanic
Tue 01:42:00 PM 29.2611 -44.8630 236° Southwest 484 557 35,100  Level FlightAware Transoceanic
Tue 01:43:00 PM 29.1857 -44.9890 236° Southwest 484 557 35,100  Level FlightAware Transoceanic
Tue 01:44:00 PM 29.1102 -45.1147 235° Southwest 484 557 35,100 50 Level FlightAware Transoceanic
Tue 01:45:00 PM 29.0610 -45.1967 235° Southwest 482 555 35,200 50 Climbing FlightAware Transoceanic
Tue 01:46:00 PM 28.9846 -45.3233 235° Southwest 482 555 35,200  Level FlightAware Transoceanic
Tue 01:47:00 PM 28.9082 -45.4497 235° Southwest 482 555 35,200  Level FlightAware Transoceanic
Tue 01:48:00 PM 28.8316 -45.5759 235° Southwest 482 555 35,200  Level FlightAware Transoceanic
Tue 01:49:00 PM 28.7548 -45.7019 235° Southwest 482 555 35,200  Level FlightAware Transoceanic
Tue 01:50:00 PM 28.6780 -45.8278 235° Southwest 482 555 35,200  Level FlightAware Transoceanic
Tue 01:51:00 PM 28.6011 -45.9534 235° Southwest 482 555 35,200  Level FlightAware Transoceanic
Tue 01:52:00 PM 28.5240 -46.0788 235° Southwest 482 555 35,200  Level FlightAware Transoceanic
Tue 01:53:00 PM 28.4468 -46.2041 235° Southwest 482 555 35,200  Level FlightAware Transoceanic
Tue 01:54:00 PM 28.3695 -46.3292 235° Southwest 482 555 35,200  Level FlightAware Transoceanic
Tue 01:55:00 PM 28.2921 -46.4541 235° Southwest 482 555 35,200  Level FlightAware Transoceanic
Tue 01:56:00 PM 28.2146 -46.5789 235° Southwest 482 555 35,200  Level FlightAware Transoceanic
Tue 01:57:00 PM 28.1369 -46.7034 235° Southwest 482 555 35,200  Level FlightAware Transoceanic
Tue 01:58:00 PM 28.0592 -46.8278 235° Southwest 482 555 35,200  Level FlightAware Transoceanic
Tue 01:59:00 PM 27.9813 -46.9520 235° Southwest 482 555 35,200 182 Level FlightAware Transoceanic
Tue 01:59:06 PM 27.9667 -46.9833 235° Southwest 486 559 35,400  Climbing New York Oceanic (ODAPS)
Tue 02:00:00 PM 27.9034 -47.0760 235° Southwest 482 555 35,200 -105 Descending FlightAware Transoceanic
Tue 02:01:00 PM 27.8253 -47.1998 234° Southwest 482 555 35,200  Level FlightAware Transoceanic
Tue 02:02:00 PM 27.7471 -47.3235 234° Southwest 482 555 35,200  Level FlightAware Transoceanic
Tue 02:03:00 PM 27.6688 -47.4469 234° Southwest 482 555 35,200  Level FlightAware Transoceanic
Tue 02:04:00 PM 27.5904 -47.5703 234° Southwest 482 555 35,200 100 Level FlightAware Transoceanic
Tue 02:05:00 PM 27.5006 -47.7170 234° Southwest 486 559 35,400 100 Climbing FlightAware Transoceanic
Tue 02:06:00 PM 27.4225 -47.8387 234° Southwest 486 559 35,400  Level FlightAware Transoceanic
Tue 02:07:00 PM 27.3444 -47.9602 234° Southwest 486 559 35,400  Level FlightAware Transoceanic
Tue 02:08:00 PM 27.2661 -48.0815 234° Southwest 486 559 35,400  Level FlightAware Transoceanic
Tue 02:09:00 PM 27.1877 -48.2027 234° Southwest 486 559 35,400  Level FlightAware Transoceanic
Tue 02:10:00 PM 27.1093 -48.3237 234° Southwest 486 559 35,400  Level FlightAware Transoceanic
Tue 02:11:00 PM 27.0307 -48.4445 234° Southwest 486 559 35,400  Level FlightAware Transoceanic
Tue 02:12:00 PM 26.9520 -48.5652 234° Southwest 486 559 35,400  Level FlightAware Transoceanic
Tue 02:13:00 PM 26.8732 -48.6856 234° Southwest 486 559 35,400  Level FlightAware Transoceanic
Tue 02:14:00 PM 26.7943 -48.8060 234° Southwest 486 559 35,400  Level FlightAware Transoceanic
Tue 02:15:00 PM 26.7154 -48.9261 234° Southwest 486 559 35,400  Level FlightAware Transoceanic
Tue 02:16:00 PM 26.6363 -49.0461 234° Southwest 486 559 35,400  Level FlightAware Transoceanic
Tue 02:17:00 PM 26.5571 -49.1659 234° Southwest 486 559 35,400  Level FlightAware Transoceanic
Tue 02:18:00 PM 26.4778 -49.2855 233° Southwest 486 559 35,400  Level FlightAware Transoceanic
Tue 02:19:00 PM 26.3984 -49.4050 233° Southwest 486 559 35,400 296 Level FlightAware Transoceanic
Tue 02:19:21 PM 26.3167 -49.5167 234° Southwest 506 582 35,800  Climbing New York Oceanic (ODAPS)
Tue 02:20:00 PM 26.3189 -49.5243 233° Southwest 486 559 35,400 -242 Descending FlightAware Transoceanic
Tue 02:21:00 PM 26.2393 -49.6435 233° Southwest 486 559 35,400  Level FlightAware Transoceanic
Tue 02:22:00 PM 26.1597 -49.7625 233° Southwest 486 559 35,400  Level FlightAware Transoceanic
Tue 02:23:00 PM 26.0799 -49.8813 233° Southwest 486 559 35,400 316 Level FlightAware Transoceanic
Tue 02:23:16 PM 26.0000 -50.0000 224° Southwest 488 562 35,800  Climbing New York Oceanic (ODAPS)
Tue 02:24:00 PM 26.0000 -50.0000 224° Southwest 486 559 35,400  Descending FlightAware Transoceanic
Tue 02:25:00 PM 25.8075 -50.2093 224° Southwest 506 582 35,800 200 Climbing FlightAware Transoceanic
Tue 02:26:00 PM 25.7112 -50.3136 224° Southwest 506 582 35,800  Level FlightAware Transoceanic
Tue 02:27:00 PM 25.6148 -50.4178 224° Southwest 506 582 35,800  Level FlightAware Transoceanic
Tue 02:28:00 PM 25.5183 -50.5219 224° Southwest 506 582 35,800  Level FlightAware Transoceanic
Tue 02:29:00 PM 25.4145 -50.6335 224° Southwest 488 562 35,800  Level FlightAware Transoceanic
Tue 02:29:33 PM 25.3833 -50.6667 224° Southwest 487 560 35,800  Level New York Oceanic (ODAPS)
Tue 02:29:53 PM 25.3667 -50.7000 224° Southwest 487 560 35,800  Level New York Oceanic (ODAPS)
Tue 02:30:00 PM 25.3166 -50.7385 224° Southwest 488 562 35,800  Level FlightAware Transoceanic
Tue 02:31:00 PM 25.2187 -50.8433 224° Southwest 488 562 35,800  Level FlightAware Transoceanic
Tue 02:32:00 PM 25.1207 -50.9480 224° Southwest 488 562 35,800  Level FlightAware Transoceanic
Tue 02:33:00 PM 25.0226 -51.0525 224° Southwest 488 562 35,800  Level FlightAware Transoceanic
Tue 02:34:00 PM 24.9245 -51.1568 224° Southwest 488 562 35,800  Level FlightAware Transoceanic
Tue 02:35:00 PM 24.7975 -51.2911 224° Southwest 487 560 35,800  Level FlightAware Transoceanic
Tue 02:36:00 PM 24.7741 -51.3300 224° Southwest 487 560 35,800  Level FlightAware Transoceanic
Tue 02:37:00 PM 24.6750 -51.4344 224° Southwest 487 560 35,800  Level FlightAware Transoceanic
Tue 02:38:00 PM 24.5760 -51.5386 224° Southwest 487 560 35,800  Level FlightAware Transoceanic
Tue 02:39:00 PM 24.4768 -51.6427 224° Southwest 487 560 35,800  Level FlightAware Transoceanic
Tue 02:39:39 PM 24.4333 -51.6833 224° Southwest 480 552 35,800  Level New York Oceanic (ODAPS)
Tue 02:40:00 PM 24.3775 -51.7466 224° Southwest 487 560 35,800  Level FlightAware Transoceanic
Tue 02:41:00 PM 24.2782 -51.8503 224° Southwest 487 560 35,800  Level FlightAware Transoceanic
Tue 02:42:00 PM 24.1789 -51.9539 224° Southwest 487 560 35,800  Level FlightAware Transoceanic
Tue 02:43:00 PM 24.0794 -52.0574 223° Southwest 487 560 35,800  Level FlightAware Transoceanic
Tue 02:44:00 PM 23.9799 -52.1606 223° Southwest 487 560 35,800  Level FlightAware Transoceanic
Tue 02:45:00 PM 23.8588 -52.2816 223° Southwest 480 552 35,800  Level FlightAware Transoceanic
Tue 02:46:00 PM 23.7628 -52.3808 223° Southwest 480 552 35,800  Level FlightAware Transoceanic
Tue 02:47:00 PM 23.6667 -52.4798 223° Southwest 480 552 35,800  Level FlightAware Transoceanic
Tue 02:48:00 PM 23.5706 -52.5787 223° Southwest 480 552 35,800  Level FlightAware Transoceanic
Tue 02:49:00 PM 23.4744 -52.6775 223° Southwest 480 552 35,800  Level FlightAware Transoceanic
Tue 02:50:00 PM 23.3782 -52.7761 223° Southwest 480 552 35,800  Level FlightAware Transoceanic
Tue 02:51:00 PM 23.2819 -52.8745 223° Southwest 480 552 35,800  Level FlightAware Transoceanic
Tue 02:52:00 PM 23.1856 -52.9729 223° Southwest 480 552 35,800  Level FlightAware Transoceanic
Tue 02:53:00 PM 23.0891 -53.0711 223° Southwest 480 552 35,800  Level FlightAware Transoceanic
Tue 02:54:00 PM 22.9927 -53.1691 223° Southwest 480 552 35,800  Level FlightAware Transoceanic
Tue 02:55:00 PM 22.8961 -53.2670 223° Southwest 480 552 35,800  Level FlightAware Transoceanic
Tue 02:56:00 PM 22.7995 -53.3648 223° Southwest 480 552 35,800  Level FlightAware Transoceanic
Tue 02:57:00 PM 22.7029 -53.4624 223° Southwest 480 552 35,800  Level FlightAware Transoceanic
Tue 02:58:00 PM 22.6061 -53.5599 223° Southwest 480 552 35,800  Level FlightAware Transoceanic
Tue 02:59:00 PM 22.5094 -53.6572 223° Southwest 480 552 35,800 105 Level FlightAware Transoceanic
Tue 02:59:54 PM 22.5500 -53.6167 223° Southwest 475 547 36,000  Climbing New York Oceanic (ODAPS)
Tue 03:00:00 PM 22.4125 -53.7544 223° Southwest 480 552 35,800 -182 Descending FlightAware Transoceanic
Tue 03:01:00 PM 22.3156 -53.8515 223° Southwest 480 552 35,800  Level FlightAware Transoceanic
Tue 03:02:00 PM 22.2187 -53.9485 223° Southwest 480 552 35,800  Level FlightAware Transoceanic
Tue 03:03:00 PM 22.1217 -54.0453 223° Southwest 480 552 35,800  Level FlightAware Transoceanic
Tue 03:04:00 PM 22.0246 -54.1419 223° Southwest 480 552 35,800  Level FlightAware Transoceanic
Tue 03:05:00 PM 21.9275 -54.2385 223° Southwest 480 552 35,800 100 Level FlightAware Transoceanic
Tue 03:06:00 PM 21.9629 -54.2035 223° Southwest 475 547 36,000 100 Climbing FlightAware Transoceanic
Tue 03:07:00 PM 21.8649 -54.3008 223° Southwest 475 547 36,000  Level FlightAware Transoceanic
Tue 03:08:00 PM 21.7668 -54.3980 223° Southwest 475 547 36,000  Level FlightAware Transoceanic
Tue 03:09:00 PM 21.6686 -54.4951 223° Southwest 475 547 36,000  Level FlightAware Transoceanic
Tue 03:10:00 PM 21.5704 -54.5920 223° Southwest 475 547 36,000  Level FlightAware Transoceanic
Tue 03:11:00 PM 21.4721 -54.6889 222° Southwest 475 547 36,000  Level FlightAware Transoceanic
Tue 03:11:44 PM 21.4000 -54.7500 223° Southwest 475 547 36,000  Level New York Oceanic (ODAPS)
Tue 03:12:00 PM 21.3738 -54.7855 222° Southwest 475 547 36,000  Level FlightAware Transoceanic
Tue 03:13:00 PM 21.2754 -54.8821 222° Southwest 475 547 36,000  Level FlightAware Transoceanic
Tue 03:14:00 PM 21.1770 -54.9785 222° Southwest 475 547 36,000  Level FlightAware Transoceanic
Tue 03:15:00 PM 21.0785 -55.0748 222° Southwest 475 547 36,000  Level FlightAware Transoceanic
Tue 03:16:00 PM 20.9799 -55.1709 222° Southwest 475 547 36,000  Level FlightAware Transoceanic
Tue 03:17:00 PM 20.8813 -55.2669 222° Southwest 475 547 36,000  Level FlightAware Transoceanic
Tue 03:18:00 PM 20.7248 -55.4113 222° Southwest 475 547 36,000  Level FlightAware Transoceanic
Tue 03:19:00 PM 20.6281 -55.5053 222° Southwest 475 547 36,000  Level FlightAware Transoceanic
Tue 03:20:00 PM 20.5314 -55.5991 222° Southwest 475 547 36,000  Level FlightAware Transoceanic
Tue 03:20:11 PM 20.5667 -55.5667 222° Southwest 472 543 36,000  Level New York Oceanic (ODAPS)
Tue 03:21:00 PM 20.4346 -55.6929 222° Southwest 475 547 36,000  Level FlightAware Transoceanic
Tue 03:22:00 PM 20.3378 -55.7865 222° Southwest 475 547 36,000  Level FlightAware Transoceanic
Tue 03:23:00 PM 20.2410 -55.8800 222° Southwest 475 547 36,000  Level FlightAware Transoceanic
Tue 03:24:00 PM 20.1440 -55.9734 222° Southwest 475 547 36,000  Level FlightAware Transoceanic
Tue 03:25:00 PM 20.0471 -56.0667 222° Southwest 475 547 36,000  Level FlightAware Transoceanic
Tue 03:26:00 PM 19.9773 -56.1351 222° Southwest 472 543 36,000  Level FlightAware Transoceanic
Tue 03:27:00 PM 19.8789 -56.2294 222° Southwest 472 543 36,000  Level FlightAware Transoceanic
Tue 03:28:00 PM 19.7804 -56.3236 222° Southwest 472 543 36,000  Level FlightAware Transoceanic
Tue 03:29:00 PM 19.6819 -56.4177 222° Southwest 472 543 36,000  Level FlightAware Transoceanic
Tue 03:30:00 PM 19.5833 -56.5117 222° Southwest 472 543 36,000  Level FlightAware Transoceanic
Tue 03:31:00 PM 19.4847 -56.6055 222° Southwest 472 543 36,000  Level FlightAware Transoceanic
Tue 03:32:00 PM 19.3861 -56.6992 222° Southwest 472 543 36,000  Level FlightAware Transoceanic
Tue 03:33:00 PM 19.2874 -56.7929 222° Southwest 472 543 36,000  Level FlightAware Transoceanic
Tue 03:34:00 PM 19.1886 -56.8864 222° Southwest 472 543 36,000  Level FlightAware Transoceanic
Tue 03:34:25 PM 19.1833 -56.9000 222° Southwest 471 542 36,000  Level New York Oceanic (ODAPS)
Tue 03:35:00 PM 19.0898 -56.9798 222° Southwest 472 543 36,000  Level FlightAware Transoceanic
Tue 03:35:11 PM 19.1000 -56.9667 222° Southwest 470 541 36,000  Level New York Oceanic (ODAPS)
Tue 03:35:20 PM 19.1000 -56.9667 222° Southwest 473 544 36,000  Level New York Oceanic (ODAPS)
Tue 03:36:00 PM 18.9910 -57.0731 222° Southwest 472 543 36,000  Level FlightAware Transoceanic
Tue 03:37:00 PM 18.8921 -57.1663 222° Southwest 472 543 36,000  Level FlightAware Transoceanic
Tue 03:38:00 PM 18.7931 -57.2593 222° Southwest 472 543 36,000  Level FlightAware Transoceanic
Tue 03:39:00 PM 18.6942 -57.3523 222° Southwest 472 543 36,000  Level FlightAware Transoceanic
Tue 03:40:00 PM 18.5925 -57.4519 221° Southwest 471 542 36,000  Level FlightAware Transoceanic
Tue 03:40:25 PM 18.5833 -57.4500 222° Southwest 472 543 36,000  Level New York Oceanic (ODAPS)
Tue 03:41:00 PM 18.5007 -57.5320 222° Southwest 473 544 36,000  Level FlightAware Transoceanic
Tue 03:42:00 PM 18.4007 -57.6258 222° Southwest 473 544 36,000  Level FlightAware Transoceanic
Tue 03:43:00 PM 18.3006 -57.7195 222° Southwest 473 544 36,000  Level FlightAware Transoceanic
Tue 03:44:00 PM 18.2004 -57.8131 222° Southwest 473 544 36,000  Level FlightAware Transoceanic
Tue 03:45:00 PM 18.1002 -57.9066 222° Southwest 473 544 36,000  Level FlightAware Transoceanic
Tue 03:46:00 PM 18.0000 -58.0000 221° Southwest 472 543 36,000  Level FlightAware Transoceanic
Tue 03:47:00 PM 17.9002 -58.0903 221° Southwest 472 543 36,000  Level FlightAware Transoceanic
Tue 03:48:00 PM 17.8002 -58.1805 221° Southwest 472 543 36,000  Level FlightAware Transoceanic
Tue 03:49:00 PM 17.7003 -58.2705 221° Southwest 472 543 36,000  Level FlightAware Transoceanic
Tue 03:50:00 PM 17.6003 -58.3605 221° Southwest 472 543 36,000  Level FlightAware Transoceanic
Tue 03:51:00 PM 17.5003 -58.4504 221° Southwest 472 543 36,000  Level FlightAware Transoceanic
Tue 03:52:00 PM 17.4002 -58.5402 221° Southwest 472 543 36,000  Level FlightAware Transoceanic
Tue 03:53:00 PM 17.3001 -58.6299 221° Southwest 472 543 36,000  Level FlightAware Transoceanic
Tue 03:54:00 PM 17.2000 -58.7195 220° Southwest 472 543 36,000  Level FlightAware Transoceanic
Tue 03:54:34 PM 17.2070 -58.7380 220° Southwest 36,000  Level FlightAware ADS-B
Tue 03:55:27 PM 17.1250 -58.8110 220° Southwest 472 543 36,000  Level FlightAware ADS-B
Tue 03:56:09 PM 17.0510 -58.8760 220° Southwest 471 542 36,000  Level FlightAware ADS-B
Tue 03:56:53 PM 16.9760 -58.9430 221° Southwest 468 539 36,000  Level FlightAware ADS-B
Tue 03:57:40 PM 16.8950 -59.0150 220° Southwest 468 539 36,000  Level FlightAware ADS-B
Tue 03:58:13 PM 16.8370 -59.0660 220° Southwest 468 539 36,000  Level FlightAware ADS-B
Tue 03:58:58 PM 16.7730 -59.1230 220° Southwest 467 537 36,000  Level FlightAware ADS-B
Tue 03:59:42 PM 16.6970 -59.1900 220° Southwest 466 536 36,000  Level FlightAware ADS-B
Tue 04:00:19 PM 16.6340 -59.2450 220° Southwest 466 536 36,000  Level FlightAware ADS-B
Tue 04:01:07 PM 16.5520 -59.3170 220° Southwest 467 537 36,000  Level FlightAware ADS-B
Tue 04:01:46 PM 16.4890 -59.3730 220° Southwest 469 540 36,000  Level FlightAware ADS-B
Tue 04:02:30 PM 16.4160 -59.4370 220° Southwest 470 541 36,000  Level FlightAware ADS-B
Tue 04:03:07 PM 16.3560 -59.4900 220° Southwest 470 541 36,000  Level FlightAware ADS-B
Tue 04:03:55 PM 16.2750 -59.5610 220° Southwest 471 542 36,000  Level FlightAware ADS-B
Tue 04:04:38 PM 16.2040 -59.6230 220° Southwest 473 544 36,000  Level FlightAware ADS-B
Tue 04:05:34 PM 16.1140 -59.7020 220° Southwest 475 547 36,000 -184 Level FlightAware ADS-B
Tue 04:06:16 PM 16.0410 -59.7660 220° Southwest 479 551 35,700 -1,538 Descending FlightAware ADS-B
Tue 04:06:52 PM 15.9760 -59.8230 220° Southwest 479 551 34,000 -3,114 Descending FlightAware ADS-B
Tue 04:07:35 PM 15.9070 -59.8830 220° Southwest 490 564 31,600 -3,136 Descending FlightAware ADS-B
Tue 04:08:20 PM 15.8210 -59.9590 220° Southwest 487 560 29,400 -2,697 Descending FlightAware ADS-B
Tue 04:09:04 PM 15.7470 -60.0230 220° Southwest 480 552 27,600 -2,372 Descending FlightAware ADS-B
Tue 04:09:46 PM 15.6780 -60.0830 220° Southwest 474 545 26,000 -2,268 Descending FlightAware ADS-B
Tue 04:10:26 PM 15.6130 -60.1400 220° Southwest 469 540 24,500 -2,122 Descending FlightAware ADS-B
Tue 04:11:08 PM 15.5450 -60.1990 220° Southwest 463 533 23,100 -1,862 Descending FlightAware ADS-B
Tue 04:11:53 PM 15.4700 -60.2640 220° Southwest 455 524 21,800 -1,823 Descending FlightAware ADS-B
Tue 04:12:27 PM 15.4160 -60.3110 220° Southwest 448 516 20,700 -2,053 Descending FlightAware ADS-B
Tue 04:13:09 PM 15.3510 -60.3680 220° Southwest 437 503 19,200 -2,118 Descending FlightAware ADS-B
Tue 04:13:52 PM 15.2850 -60.4240 219° Southwest 430 495 17,700 -2,278 Descending FlightAware ADS-B
Tue 04:14:28 PM 15.2220 -60.4790 220° Southwest 426 490 16,200 -2,067 Descending FlightAware ADS-B
Tue 04:15:22 PM 15.1480 -60.5430 220° Southwest 415 478 14,600 -1,978 Descending FlightAware ADS-B
Tue 04:15:59 PM 15.0880 -60.5950 220° Southwest 411 473 13,200 -1,976 Descending FlightAware ADS-B
Tue 04:16:47 PM 15.0260 -60.6480 220° Southwest 405 466 11,800 -1,416 Descending FlightAware ADS-B
Tue 04:17:28 PM 14.9650 -60.7010 220° Southwest 381 438 11,100 -1,171 Descending FlightAware ADS-B
Tue 04:18:09 PM 14.9150 -60.7440 220° Southwest 347 399 10,200 -1,358 Descending FlightAware ADS-B
Tue 04:18:21 PM 14.8950 -60.7620 221° Southwest 329 379 9,900 -1,463 Descending FlightAware ADS-B
Tue 04:18:50 PM 14.8640 -60.7880 219° Southwest 317 365 9,200 -1,385 Descending FlightAware ADS-B
Tue 04:19:13 PM 14.8400 -60.8090 220° Southwest 312 359 8,700 -1,269 Descending FlightAware ADS-B
Tue 04:19:42 PM 14.8110 -60.8340 220° Southwest 308 354 8,100 -1,500 Descending FlightAware ADS-B
Tue 04:20:13 PM 14.7700 -60.8690 220° Southwest 305 351 7,200 -1,400 Descending FlightAware ADS-B
Tue 04:20:42 PM 14.7430 -60.8920 219° Southwest 301 346 6,700 -1,263 Descending FlightAware ADS-B
Tue 04:21:10 PM 14.7130 -60.9180 220° Southwest 296 341 6,000 -1,309 Descending FlightAware ADS-B
Tue 04:21:37 PM 14.6890 -60.9390 220° Southwest 293 337 5,500 -1,119 Descending FlightAware ADS-B
Tue 04:22:09 PM 14.6550 -60.9680 220° Southwest 285 328 4,900 -947 Descending FlightAware ADS-B
Tue 04:22:34 PM 14.6310 -60.9880 219° Southwest 269 310 4,600 -353 Descending FlightAware ADS-B
Tue 04:23:17 PM 14.5980 -61.0160 219° Southwest 264 304 4,500 -140 Descending FlightAware ADS-B
Tue 04:25:00 PM 14.5910 -61.0032 136° Southeast  Level Estimated
Tue 04:26:00 PM 14.5910 -61.0032 136° Southeast  Level Estimated
Tue 04:27:00 PM 14.5910 -61.0032 136° Southeast  Level Estimated
Tue 04:28:00 PM 14.5910 -61.0032 136° Southeast  Level Estimated
Tue 04:29:00 PM 14.5910 -61.0032 136° Southeast  Level Estimated
Tue 04:30:00 PM 14.5910 -61.0032 136° Southeast  Level Estimated
Tue 04:31:00 PM 14.5910 -61.0032 136° Southeast  Level Estimated
Tue 04:32:00 PM 14.5910 -61.0032 136° Southeast  Level Estimated
Tue 04:33:00 PM 14.5910 -61.0032 136° Southeast  Level Estimated
Tue 04:34:00 PM 14.5910 -61.0032 136° Southeast  Level Estimated
Tue 04:35:00 PM 14.5910 -61.0032 136° Southeast  Level Estimated
Tue 04:36:00 PM 14.5910 -61.0032 136° Southeast  Level Estimated
Tue 04:37:00 PM 14.5910 -61.0032 136° Southeast  Level Estimated
Tue 04:38:00 PM 14.5910 -61.0032 136° Southeast  Level Estimated

Login

Don't have an account? Register now (free) for customized features, flight alerts, and more!